createdAt,value
2022-09-17T00:00:52.677Z,12.52
2022-09-17T00:03:19.493Z,12.50
2022-09-17T00:05:46.097Z,12.49
2022-09-17T00:08:15.070Z,12.44
2022-09-17T00:10:44.265Z,12.38
2022-09-17T00:13:11.687Z,12.38
2022-09-17T00:15:46.484Z,12.39
2022-09-17T00:18:14.493Z,12.32
2022-09-17T00:20:46.765Z,12.04
2022-09-17T00:23:14.896Z,11.96
2022-09-17T00:25:43.414Z,11.95
2022-09-17T00:28:11.309Z,11.82
2022-09-17T00:30:43.723Z,11.74
2022-09-17T00:33:14.514Z,11.56
2022-09-17T00:35:41.474Z,11.36
2022-09-17T00:38:08.166Z,11.21
2022-09-17T00:40:34.997Z,10.99
2022-09-17T00:43:02.290Z,10.83
2022-09-17T00:45:30.132Z,10.76
2022-09-17T00:48:06.363Z,10.65
2022-09-17T00:50:40.397Z,10.67
2022-09-17T00:53:13.908Z,10.68
2022-09-17T00:55:45.986Z,10.70
2022-09-17T00:58:17.249Z,10.77
2022-09-17T01:00:43.894Z,10.84
2022-09-17T01:03:10.500Z,10.97
2022-09-17T01:06:02.275Z,11.05
2022-09-17T01:09:03.602Z,11.19
2022-09-17T01:12:11.535Z,11.29
2022-09-17T01:15:02.205Z,11.43
2022-09-17T01:17:50.183Z,11.42
2022-09-17T01:20:37.018Z,11.41
2022-09-17T01:23:39.063Z,11.44
2022-09-17T01:26:53.670Z,11.54
2022-09-17T01:29:44.896Z,11.65
2022-09-17T01:32:22.130Z,11.70
2022-09-17T01:35:13.148Z,11.73
2022-09-17T01:37:54.328Z,11.70
2022-09-17T01:40:27.589Z,11.70
2022-09-17T01:43:04.502Z,11.73
2022-09-17T01:45:41.661Z,11.67
2022-09-17T01:48:36.204Z,11.60
2022-09-17T01:51:08.896Z,11.59
2022-09-17T01:53:43.146Z,11.61
2022-09-17T01:56:13.488Z,11.61
2022-09-17T01:58:48.013Z,11.53
2022-09-17T02:01:18.419Z,11.51
2022-09-17T02:04:01.086Z,11.53
2022-09-17T02:06:31.557Z,11.47
2022-09-17T02:09:05.513Z,11.49
2022-09-17T02:11:37.138Z,11.52
2022-09-17T02:14:10.250Z,11.51
2022-09-17T02:16:43.298Z,11.51
2022-09-17T02:19:19.038Z,11.51
2022-09-17T02:22:06.829Z,11.40
2022-09-17T02:25:18.158Z,11.43
2022-09-17T02:27:57.818Z,11.39
2022-09-17T02:30:24.692Z,11.34
2022-09-17T02:32:51.507Z,11.17
2022-09-17T02:35:18.232Z,10.99
2022-09-17T02:37:45.221Z,11.01
2022-09-17T02:40:14.647Z,11.01
2022-09-17T02:43:10.380Z,11.05
2022-09-17T02:46:09.997Z,11.09
2022-09-17T02:49:07.343Z,11.09
2022-09-17T02:52:11.142Z,11.18
2022-09-17T02:55:00.653Z,11.19
2022-09-17T02:58:00.803Z,11.18
2022-09-17T03:00:28.493Z,11.15
2022-09-17T03:03:02.133Z,11.09
2022-09-17T03:05:30.013Z,11.10
2022-09-17T03:07:59.141Z,11.09
2022-09-17T03:10:30.291Z,11.12
2022-09-17T03:12:56.873Z,11.19
2022-09-17T03:15:23.405Z,11.17
2022-09-17T03:17:53.211Z,11.16
2022-09-17T03:20:20.318Z,11.14
2022-09-17T03:22:47.226Z,11.23
2022-09-17T03:25:13.902Z,11.24
2022-09-17T03:27:40.493Z,11.35
2022-09-17T03:30:07.374Z,11.38
2022-09-17T03:32:33.958Z,11.26
2022-09-17T03:35:00.713Z,11.22
2022-09-17T03:37:30.962Z,11.26
2022-09-17T03:39:59.405Z,11.24
2022-09-17T03:42:26.221Z,11.22
2022-09-17T03:44:52.773Z,11.04
2022-09-17T03:47:19.569Z,10.99
2022-09-17T03:49:46.283Z,10.93
2022-09-17T03:52:12.895Z,10.86
2022-09-17T03:54:39.881Z,10.87
2022-09-17T03:57:06.525Z,10.86
2022-09-17T03:59:33.227Z,10.84
2022-09-17T04:01:59.894Z,10.85
2022-09-17T04:04:26.606Z,10.89
2022-09-17T04:06:54.574Z,10.88
2022-09-17T04:09:21.179Z,10.86
2022-09-17T04:11:47.930Z,10.78
2022-09-17T04:14:14.511Z,10.79
2022-09-17T04:16:41.324Z,10.74
2022-09-17T04:19:08.154Z,10.80
2022-09-17T04:21:34.723Z,10.85
2022-09-17T04:24:01.562Z,10.90
2022-09-17T04:26:28.192Z,10.97
2022-09-17T04:28:54.803Z,10.91
2022-09-17T04:31:22.808Z,10.90
2022-09-17T04:33:49.456Z,10.85
2022-09-17T04:36:16.275Z,10.81
2022-09-17T04:38:43.016Z,10.82
2022-09-17T04:41:09.662Z,10.77
2022-09-17T04:43:36.496Z,10.83
2022-09-17T04:46:03.205Z,10.80
2022-09-17T04:48:29.982Z,10.77
2022-09-17T04:50:56.722Z,10.79
2022-09-17T04:53:23.369Z,10.80
2022-09-17T04:55:49.949Z,10.73
2022-09-17T04:58:16.556Z,10.71
2022-09-17T05:00:43.443Z,10.60
2022-09-17T05:03:10.075Z,10.63
2022-09-17T05:05:36.764Z,10.66
2022-09-17T05:08:03.842Z,10.76
2022-09-17T05:10:30.441Z,10.74
2022-09-17T05:12:57.902Z,10.73
2022-09-17T05:15:26.472Z,10.76
2022-09-17T05:17:53.460Z,10.76
2022-09-17T05:20:20.191Z,10.77
2022-09-17T05:22:49.117Z,10.71
2022-09-17T05:25:18.474Z,10.66
2022-09-17T05:27:45.780Z,10.71
2022-09-17T05:30:13.194Z,10.70
2022-09-17T05:32:40.802Z,10.70
2022-09-17T05:35:09.006Z,10.69
2022-09-17T05:37:35.896Z,10.72
2022-09-17T05:40:04.772Z,10.79
2022-09-17T05:42:31.508Z,10.77
2022-09-17T05:44:58.387Z,10.87
2022-09-17T05:47:25.391Z,10.84
2022-09-17T05:49:52.191Z,10.85
2022-09-17T05:52:19.401Z,10.80
2022-09-17T05:54:46.714Z,10.79
2022-09-17T05:57:13.362Z,10.71
2022-09-17T05:59:39.954Z,10.69
2022-09-17T06:02:06.841Z,10.61
2022-09-17T06:04:35.066Z,10.51
2022-09-17T06:07:06.631Z,10.50
2022-09-17T06:09:35.698Z,10.56
2022-09-17T06:12:02.720Z,10.47
2022-09-17T06:14:29.593Z,10.42
2022-09-17T06:16:56.576Z,10.46
2022-09-17T06:19:23.117Z,10.44
2022-09-17T06:21:50.536Z,10.29
2022-09-17T06:24:17.130Z,10.31
2022-09-17T06:26:43.712Z,10.26
2022-09-17T06:29:10.328Z,10.32
2022-09-17T06:31:36.932Z,10.31
2022-09-17T06:34:05.616Z,10.41
2022-09-17T06:36:32.217Z,10.40
2022-09-17T06:38:59.007Z,10.42
2022-09-17T06:41:25.562Z,10.25
2022-09-17T06:43:55.506Z,10.08
2022-09-17T06:46:22.484Z,10.17
2022-09-17T06:48:49.142Z,10.15
2022-09-17T06:51:15.977Z,10.23
2022-09-17T06:53:42.617Z,10.23
2022-09-17T06:56:09.552Z,10.22
2022-09-17T06:58:41.975Z,10.15
2022-09-17T07:01:09.320Z,10.13
2022-09-17T07:03:36.249Z,10.13
2022-09-17T07:06:03.296Z,10.21
2022-09-17T07:08:34.420Z,10.25
2022-09-17T07:11:01.258Z,10.16
2022-09-17T07:13:27.837Z,10.10
2022-09-17T07:15:56.616Z,10.08
2022-09-17T07:18:23.642Z,10.13
2022-09-17T07:21:06.516Z,10.16
2022-09-17T07:23:35.563Z,10.21
2022-09-17T07:26:06.614Z,10.26
2022-09-17T07:28:33.225Z,10.25
2022-09-17T07:31:04.770Z,10.43
2022-09-17T07:33:34.434Z,10.43
2022-09-17T07:36:03.640Z,10.46
2022-09-17T07:38:31.248Z,10.51
2022-09-17T07:41:06.339Z,10.61
2022-09-17T07:43:34.969Z,10.83
2022-09-17T07:46:04.372Z,10.96
2022-09-17T07:48:31.074Z,11.06
2022-09-17T07:50:58.440Z,11.10
2022-09-17T07:53:25.814Z,10.92
2022-09-17T07:55:57.073Z,10.95
2022-09-17T07:58:28.023Z,10.81
2022-09-17T08:01:03.742Z,10.84
2022-09-17T08:03:30.691Z,10.89
2022-09-17T08:06:11.491Z,10.96
2022-09-17T08:08:39.488Z,10.94
2022-09-17T08:11:23.641Z,11.00
2022-09-17T08:13:59.936Z,10.96
2022-09-17T08:16:26.843Z,10.93
2022-09-17T08:18:57.554Z,10.94
2022-09-17T08:21:24.680Z,10.89
2022-09-17T08:23:51.270Z,11.01
2022-09-17T08:26:21.605Z,11.03
2022-09-17T08:28:55.183Z,10.98
2022-09-17T08:31:24.032Z,10.83
2022-09-17T08:33:51.140Z,10.91
2022-09-17T08:36:19.874Z,11.05
2022-09-17T08:38:46.881Z,11.13
2022-09-17T08:41:49.881Z,10.96
2022-09-17T08:44:27.586Z,10.97
2022-09-17T08:47:12.954Z,11.06
2022-09-17T08:50:03.274Z,11.04
2022-09-17T08:53:23.456Z,10.95
2022-09-17T08:56:06.244Z,10.95
2022-09-17T08:59:01.895Z,10.93
2022-09-17T09:02:18.142Z,10.97
2022-09-17T09:05:04.260Z,11.09
2022-09-17T09:07:38.189Z,11.20
2022-09-17T09:10:23.305Z,11.23
2022-09-17T09:12:52.374Z,11.26
2022-09-17T09:15:36.888Z,11.29
2022-09-17T09:18:16.578Z,11.39
2022-09-17T09:21:04.077Z,11.50
2022-09-17T09:23:56.829Z,11.31
2022-09-17T09:26:42.007Z,11.32
2022-09-17T09:29:38.463Z,11.36
2022-09-17T09:32:48.595Z,11.44
2022-09-17T09:35:37.448Z,11.59
2022-09-17T09:38:15.597Z,11.59
2022-09-17T09:40:55.369Z,11.41
2022-09-17T09:44:04.522Z,11.24
2022-09-17T09:47:30.514Z,11.28
2022-09-17T09:50:12.296Z,11.33
2022-09-17T10:25:33.085Z,11.58
2022-09-17T10:28:03.729Z,11.62
2022-09-17T10:30:30.991Z,11.69
2022-09-17T10:33:24.900Z,11.74
2022-09-17T10:36:37.943Z,11.96
2022-09-17T10:39:44.575Z,12.06
2022-09-17T10:42:15.866Z,12.03
2022-09-17T10:44:59.998Z,12.04
2022-09-17T10:47:33.593Z,12.01
2022-09-17T10:50:03.709Z,11.96
2022-09-17T10:52:36.234Z,11.80
2022-09-17T10:55:25.927Z,11.66
2022-09-17T10:58:30.799Z,11.73
2022-09-17T11:01:30.379Z,11.80
2022-09-17T11:04:30.475Z,11.87
2022-09-17T11:07:42.439Z,12.00
2022-09-17T11:10:29.353Z,11.98
2022-09-17T11:13:17.130Z,11.90
2022-09-17T11:15:59.660Z,11.88
2022-09-17T11:18:39.738Z,11.87
2022-09-17T11:21:58.863Z,11.73
2022-09-17T11:25:13.062Z,11.54
2022-09-17T11:27:51.452Z,11.53
2022-09-17T11:30:24.252Z,11.55
2022-09-17T11:33:28.578Z,11.43
2022-09-17T11:36:04.429Z,11.39
2022-09-17T11:38:40.361Z,11.40
2022-09-17T11:41:19.411Z,11.38
2022-09-17T11:44:05.782Z,11.37
2022-09-17T11:46:42.974Z,11.25
2022-09-17T11:49:22.232Z,11.03
2022-09-17T11:52:06.827Z,10.84
2022-09-17T11:55:07.606Z,10.66
2022-09-17T11:57:38.780Z,10.49
2022-09-17T12:00:14.291Z,10.16
2022-09-17T12:03:07.262Z,9.85
2022-09-17T12:05:54.538Z,9.84
2022-09-17T12:08:53.529Z,9.88
2022-09-17T12:11:35.056Z,9.96
2022-09-17T12:14:09.388Z,9.78
2022-09-17T12:16:43.713Z,9.75
2022-09-17T12:19:31.278Z,9.85
2022-09-17T12:22:08.668Z,9.94
2022-09-17T12:24:35.562Z,10.00
2022-09-17T12:27:41.610Z,10.12
2022-09-17T12:30:29.009Z,10.15
2022-09-17T12:33:38.973Z,10.30
2022-09-17T12:36:37.898Z,10.39
2022-09-17T12:39:37.694Z,10.45
2022-09-17T12:42:40.117Z,10.63
2022-09-17T12:46:02.459Z,10.77
2022-09-17T12:49:09.768Z,10.73
2022-09-17T12:51:58.625Z,10.64
2022-09-17T12:55:04.149Z,10.51
2022-09-17T12:58:09.434Z,10.15
2022-09-17T13:01:04.089Z,10.03
2022-09-17T13:03:40.881Z,9.99
2022-09-17T13:06:27.025Z,10.12
2022-09-17T13:09:13.897Z,10.38
2022-09-17T13:11:58.061Z,10.44
2022-09-17T13:20:27.558Z,10.13
2022-09-17T13:22:57.775Z,10.28
2022-09-17T13:25:26.139Z,10.34
2022-09-17T13:28:07.028Z,10.20
2022-09-17T13:30:57.994Z,10.26
2022-09-17T13:33:50.522Z,10.01
2022-09-17T13:36:37.097Z,9.82
2022-09-17T13:39:05.370Z,9.93
2022-09-17T13:41:36.713Z,9.91
2022-09-17T13:44:08.368Z,9.81
2022-09-17T13:46:36.746Z,9.75
2022-09-17T13:49:15.066Z,9.73
2022-09-17T13:51:46.954Z,9.88
2022-09-17T13:54:15.060Z,9.87
2022-09-17T13:56:46.193Z,9.84
2022-09-17T13:59:20.702Z,9.74
2022-09-17T14:02:31.052Z,9.76
2022-09-17T14:05:25.958Z,9.60
2022-09-17T14:08:11.941Z,9.59
2022-09-17T14:10:43.312Z,9.74
2022-09-17T14:13:41.202Z,9.80
2022-09-17T14:16:25.189Z,9.88
2022-09-17T14:19:17.062Z,9.80
2022-09-17T14:22:02.167Z,9.74
2022-09-17T14:24:52.550Z,9.79
2022-09-17T14:27:26.690Z,9.96
2022-09-17T14:30:13.893Z,9.88
2022-09-17T14:33:21.463Z,9.94
2022-09-17T14:35:55.531Z,9.91
2022-09-17T14:38:44.564Z,9.96
2022-09-17T14:41:35.628Z,10.01
2022-09-17T14:44:17.209Z,10.11
2022-09-17T14:46:52.443Z,10.01
2022-09-17T14:49:36.200Z,10.09
2022-09-17T14:52:18.021Z,10.14
2022-09-17T14:54:44.734Z,10.23
2022-09-17T14:57:29.649Z,10.17
2022-09-17T14:59:57.782Z,10.23
2022-09-17T15:02:35.920Z,10.34
2022-09-17T15:05:17.005Z,10.49
2022-09-17T15:07:45.252Z,10.64
2022-09-17T15:10:18.066Z,10.55
2022-09-17T15:12:45.422Z,10.59
2022-09-17T15:15:24.644Z,10.75
2022-09-17T15:17:52.403Z,10.63
2022-09-17T15:20:25.115Z,10.71
2022-09-17T15:23:16.164Z,10.76
2022-09-17T15:25:45.079Z,10.77
2022-09-17T15:28:26.695Z,10.81
2022-09-17T15:30:53.310Z,10.87
2022-09-17T15:33:20.349Z,10.76
2022-09-17T15:36:15.082Z,10.79
2022-09-17T15:38:42.582Z,10.83
2022-09-17T15:41:20.970Z,10.65
2022-09-17T15:43:48.762Z,10.59
2022-09-17T15:46:27.233Z,10.58
2022-09-17T15:48:55.749Z,10.69
2022-09-17T15:51:34.407Z,10.68
2022-09-17T15:54:08.099Z,10.62
2022-09-17T15:56:38.984Z,10.63
2022-09-17T15:59:28.003Z,10.53
2022-09-17T16:01:57.523Z,10.45
2022-09-17T16:04:33.729Z,10.43
2022-09-17T16:07:01.508Z,10.36
2022-09-17T16:09:43.185Z,10.36
2022-09-17T16:12:13.301Z,10.32
2022-09-17T16:14:43.879Z,10.30
2022-09-17T16:17:44.228Z,10.39
2022-09-17T16:20:25.002Z,10.39
2022-09-17T16:22:53.111Z,10.43
2022-09-17T16:25:23.943Z,10.42
2022-09-17T16:27:59.857Z,10.34
2022-09-17T16:30:27.052Z,10.26
2022-09-17T16:32:54.683Z,10.30
2022-09-17T16:35:24.003Z,10.39
2022-09-17T16:37:51.937Z,10.42
2022-09-17T16:40:19.897Z,10.43
2022-09-17T16:42:47.062Z,10.34
2022-09-17T16:45:14.137Z,10.40
2022-09-17T16:47:42.156Z,10.42
2022-09-17T16:50:17.148Z,10.37
2022-09-17T16:52:44.729Z,10.38
2022-09-17T16:55:14.431Z,10.41
2022-09-17T16:57:41.465Z,10.41
2022-09-17T17:00:16.070Z,10.49
2022-09-17T17:02:45.420Z,10.48
2022-09-17T17:05:12.005Z,10.46
2022-09-17T17:07:38.577Z,10.45
2022-09-17T17:10:09.011Z,10.44
2022-09-17T17:12:36.818Z,10.46
2022-09-17T17:15:06.248Z,10.48
2022-09-17T17:17:35.399Z,10.33
2022-09-17T17:20:09.324Z,10.39
2022-09-17T17:22:37.665Z,10.42
2022-09-17T17:25:05.888Z,10.43
2022-09-17T17:27:32.810Z,10.39
2022-09-17T17:30:01.618Z,10.39
2022-09-17T17:32:28.201Z,10.45
2022-09-17T17:34:54.780Z,10.31
2022-09-17T17:37:23.266Z,10.18
2022-09-17T17:39:50.006Z,10.03
2022-09-17T17:42:16.770Z,10.08
2022-09-17T17:44:43.374Z,9.88
2022-09-17T17:47:09.961Z,9.83
2022-09-17T17:49:36.577Z,9.74
2022-09-17T17:52:03.421Z,9.76
2022-09-17T17:54:30.169Z,9.72
2022-09-17T17:56:56.881Z,9.72
2022-09-17T17:59:23.691Z,9.71
2022-09-17T18:01:50.367Z,9.72
2022-09-17T18:04:17.091Z,9.77
2022-09-17T18:06:43.985Z,9.70
2022-09-17T18:09:10.553Z,9.72
2022-09-17T18:11:37.355Z,9.70
2022-09-17T18:14:03.983Z,9.61
2022-09-17T18:16:30.665Z,9.56
2022-09-17T18:19:00.986Z,9.61
2022-09-17T18:21:27.806Z,9.51
2022-09-17T18:23:54.600Z,9.53
2022-09-17T18:26:24.006Z,9.52
2022-09-17T18:28:51.551Z,9.52
2022-09-17T18:31:32.370Z,9.55
2022-09-17T18:34:11.954Z,9.42
2022-09-17T18:36:39.581Z,9.32
2022-09-17T18:39:46.703Z,9.19
2022-09-17T18:41:54.966Z,9.03
2022-09-17T18:44:22.719Z,9.03
2022-09-17T18:46:51.242Z,8.88
2022-09-17T18:49:18.098Z,8.89
2022-09-17T18:51:44.692Z,8.93
2022-09-17T18:54:12.934Z,8.81
2022-09-17T18:56:41.483Z,8.78
2022-09-17T18:59:08.506Z,8.80
2022-09-17T19:01:36.013Z,8.83
2022-09-17T19:04:02.954Z,8.85
2022-09-17T19:06:30.497Z,8.92
2022-09-17T19:09:00.367Z,8.97
2022-09-17T19:11:26.969Z,8.96
2022-09-17T19:13:53.761Z,8.94
2022-09-17T19:16:20.586Z,8.99
2022-09-17T19:18:47.432Z,8.97
2022-09-17T19:21:19.445Z,8.99
2022-09-17T19:23:48.393Z,8.94
2022-09-17T19:26:17.892Z,8.86
2022-09-17T19:28:45.123Z,8.85
2022-09-17T19:31:14.304Z,8.83
2022-09-17T19:33:41.456Z,8.67
2022-09-17T19:36:12.018Z,8.73
2022-09-17T19:38:39.090Z,8.70
2022-09-17T19:41:10.849Z,8.68
2022-09-17T19:43:38.178Z,8.65
2022-09-17T19:46:07.253Z,8.54
2022-09-17T19:48:37.689Z,8.65
2022-09-17T19:51:05.123Z,8.69
2022-09-17T19:53:32.883Z,8.84
2022-09-17T19:56:03.236Z,8.87
2022-09-17T19:58:29.862Z,8.93
2022-09-17T20:00:59.889Z,9.01
2022-09-17T20:03:26.969Z,9.00
2022-09-17T20:06:00.980Z,9.04
2022-09-17T20:08:27.911Z,8.95
2022-09-17T20:10:55.070Z,8.95
2022-09-17T20:13:22.557Z,8.98
2022-09-17T20:15:49.249Z,8.96
2022-09-17T20:18:18.737Z,8.98
2022-09-17T20:20:49.180Z,8.98
2022-09-17T20:23:15.824Z,9.00
2022-09-17T20:25:43.565Z,8.97
2022-09-17T20:28:10.130Z,8.98
2022-09-17T20:30:36.924Z,8.88
2022-09-17T20:33:03.601Z,8.84
2022-09-17T20:35:30.224Z,8.85
2022-09-17T20:40:44.695Z,8.85
2022-09-17T20:43:11.298Z,8.87
2022-09-17T20:45:37.863Z,8.94
2022-09-17T20:48:04.687Z,8.95
2022-09-17T20:50:31.266Z,9.00
2022-09-17T20:52:58.047Z,8.99
2022-09-17T20:55:24.721Z,8.96
2022-09-17T20:57:54.193Z,8.97
2022-09-17T21:00:21.538Z,8.97
2022-09-17T21:02:54.189Z,9.05
2022-09-17T21:05:20.623Z,8.98
2022-09-17T21:07:47.178Z,8.98
2022-09-17T21:10:14.205Z,9.01
2022-09-17T21:12:40.845Z,9.05
2022-09-17T21:15:07.959Z,8.98
2022-09-17T21:17:34.734Z,8.95
2022-09-17T21:20:02.005Z,8.99
2022-09-17T21:22:28.567Z,8.99
2022-09-17T21:24:55.140Z,8.92
2022-09-17T21:27:21.770Z,8.93
2022-09-17T21:29:48.396Z,8.98
2022-09-17T21:32:16.188Z,8.98
2022-09-17T21:34:42.804Z,9.03
2022-09-17T21:37:09.344Z,9.02
2022-09-17T21:39:35.971Z,9.03
2022-09-17T21:42:02.806Z,9.03
2022-09-17T21:44:29.308Z,9.07
2022-09-17T21:46:57.681Z,9.03
2022-09-17T21:49:25.249Z,9.05
2022-09-17T21:51:51.912Z,9.04
2022-09-17T21:54:18.996Z,9.06
2022-09-17T21:56:46.660Z,9.09
2022-09-17T21:59:15.072Z,9.04
2022-09-17T22:01:47.258Z,9.04
2022-09-17T22:04:16.829Z,9.03
2022-09-17T22:06:44.599Z,9.10
2022-09-17T22:09:23.585Z,9.11
2022-09-17T22:11:52.215Z,9.10
2022-09-17T22:14:24.423Z,9.13
2022-09-17T22:16:53.350Z,9.18
2022-09-17T22:19:21.530Z,9.20
2022-09-17T22:21:51.240Z,9.24
2022-09-17T22:24:19.356Z,9.15
2022-09-17T22:26:50.739Z,9.20
2022-09-17T22:29:22.395Z,9.14
2022-09-17T22:31:49.402Z,9.14
2022-09-17T22:34:19.757Z,9.07
2022-09-17T22:36:47.029Z,9.01
2022-09-17T22:39:13.622Z,8.95
2022-09-17T22:41:45.749Z,8.92
2022-09-17T22:44:17.848Z,8.88
2022-09-17T22:46:46.639Z,8.84
2022-09-17T22:49:14.025Z,8.83
2022-09-17T22:51:41.198Z,8.92
2022-09-17T22:54:10.952Z,9.02
2022-09-17T22:56:37.624Z,8.97
2022-09-17T22:59:04.912Z,8.99
2022-09-17T23:01:34.016Z,8.97
2022-09-17T23:04:01.244Z,8.98
2022-09-17T23:06:30.957Z,8.92
2022-09-17T23:08:58.287Z,8.92
2022-09-17T23:11:33.722Z,8.86
2022-09-17T23:14:02.947Z,8.87
2022-09-17T23:16:34.677Z,8.88
2022-09-17T23:19:02.858Z,8.91
2022-09-17T23:21:29.470Z,8.92
2022-09-17T23:23:56.119Z,8.90
2022-09-17T23:26:25.146Z,8.92
2022-09-17T23:28:52.192Z,8.86
2022-09-17T23:31:24.559Z,8.87
2022-09-17T23:33:51.946Z,8.88
2022-09-17T23:36:27.714Z,8.80
2022-09-17T23:38:55.909Z,8.84
2022-09-17T23:41:28.562Z,8.75
2022-09-17T23:43:57.460Z,8.77
2022-09-17T23:46:25.794Z,8.78
2022-09-17T23:48:53.616Z,8.73
2022-09-17T23:51:21.933Z,8.72
2022-09-17T23:53:49.144Z,8.71
2022-09-17T23:56:19.061Z,8.70
2022-09-17T23:58:45.921Z,8.67
